X  Fermer Données météorologiques d'aviation de Metar     EHRD Rotterdam The Hague Airport
Température
7°C Température
5°C Point de rosée
87% Humidité



Vent
19 KM/H
12 MPH
5 M/S
10 KTS



310°
NO
Conditions actuelles

Partiellement nuageux Partiellement nuageux
Pression 1019.92 (hPa) - 30.12 (inHg)
Visibilité 6.2 (mile) - 10 (km)
Aéroport
Code de l'aéroport EHRD

Emplacement: Rotterdam The Hague Airport
Distance: 16 (km)

Metar:
EHRD 171425Z AUTO 31010KT 270V360 9999 FEW013 SCT015 BKN040 07/05 Q1020 NOSIG

Temps: 17-01-2021 15:25 CET